Time;durP1;ratioP1;P1;durP2;ratioP2;P2;SDS_P1;SDS_P2;PMS_P1;PMS_P2;Temp;Humidity;BMP_temperature;BMP_pressure;BME280_temperature;BME280_humidity;BME280_pressure;Samples;Min_cycle;Max_cycle;Signal;HPM_P1;HPM_P2
2023/02/21 02:13:57;;;;;;;8.10;7.60;;;10.00;21.60;;;;;;4980115;28;20463;-57
2023/02/21 02:16:48;;;;;;;8.10;7.70;;;10.10;21.40;;;;;;4951050;28;20441;-57
2023/02/21 02:19:31;;;;;;;7.90;7.50;;;10.20;21.20;;;;;;4960549;28;20444;-56
2023/02/21 02:22:36;;;;;;;7.50;7.10;;;10.30;21.10;;;;;;4957715;28;20557;-57
2023/02/21 02:25:26;;;;;;;8.53;8.03;;;10.40;20.70;;;;;;4912686;29;20461;-58
2023/02/21 02:28:16;;;;;;;8.60;8.10;;;10.50;21.00;;;;;;4908694;29;20982;-57
2023/02/21 02:31:33;;;;;;;8.33;7.93;;;10.60;20.80;;;;;;4959823;28;20432;-58
2023/02/21 02:34:20;;;;;;;7.97;7.67;;;10.50;20.90;;;;;;4963933;28;20417;-56
2023/02/21 02:37:24;;;;;;;7.67;7.30;;;10.60;20.80;;;;;;4978592;28;20921;-58
2023/02/21 02:39:55;;;;;;;8.27;7.87;;;10.60;20.60;;;;;;4945125;28;20784;-56
2023/02/21 02:42:36;;;;;;;8.47;7.87;;;10.60;21.10;;;;;;4960648;28;20410;-58
2023/02/21 02:45:12;;;;;;;8.73;8.13;;;10.60;21.00;;;;;;4951509;28;20805;-56
2023/02/21 02:47:43;;;;;;;13.63;8.33;;;10.60;20.90;;;;;;4958915;28;20441;-58
2023/02/21 02:50:11;;;;;;;8.03;7.73;;;10.60;20.90;;;;;;4960363;28;20942;-58
2023/02/21 02:52:38;;;;;;;8.00;7.70;;;10.60;20.60;;;;;;4961961;28;20476;-58
2023/02/21 02:55:38;;;;;;;7.20;6.90;;;10.60;20.50;;;;;;4964675;28;20842;-58
2023/02/21 02:58:05;;;;;;;9.00;8.50;;;10.70;20.60;;;;;;4954586;28;20421;-49
2023/02/21 03:00:33;;;;;;;7.80;7.40;;;10.70;20.70;;;;;;4960551;28;20430;-49
2023/02/21 03:03:08;;;;;;;9.10;8.60;;;10.70;20.50;;;;;;4965409;28;20454;-48
2023/02/21 03:05:57;;;;;;;7.93;7.53;;;10.70;20.50;;;;;;4961239;28;20418;-49
2023/02/21 03:08:50;;;;;;;8.70;8.30;;;10.80;20.70;;;;;;4963533;28;20429;-52
2023/02/21 03:11:24;;;;;;;8.47;7.70;;;10.70;20.50;;;;;;4955624;28;20469;-49
2023/02/21 03:13:56;;;;;;;8.17;7.70;;;10.70;20.60;;;;;;4963112;28;20471;-49
2023/02/21 03:16:30;;;;;;;8.37;7.87;;;10.70;20.70;;;;;;4961341;28;20771;-50
2023/02/21 03:19:16;;;;;;;8.03;7.73;;;10.70;20.70;;;;;;4948622;28;20420;-52
2023/02/21 03:22:07;;;;;;;8.47;8.13;;;10.70;20.60;;;;;;4960670;28;20437;-50
2023/02/21 03:24:34;;;;;;;9.10;8.53;;;10.50;20.60;;;;;;4961489;28;20493;-50
2023/02/21 03:27:05;;;;;;;8.80;8.40;;;10.20;20.90;;;;;;4962459;28;20600;-54
2023/02/21 03:29:33;;;;;;;8.97;8.57;;;9.90;22.30;;;;;;4958715;28;20919;-51
2023/02/21 03:34:39;;;;;;;9.27;8.77;;;9.80;22.10;;;;;;4983925;28;21022;-50
2023/02/21 03:37:07;;;;;;;9.53;8.93;;;9.50;23.60;;;;;;4959093;28;20809;-52
2023/02/21 03:39:32;;;;;;;9.93;9.17;;;9.60;23.30;;;;;;4957713;28;20501;-53
2023/02/21 03:41:58;;;;;;;9.63;9.10;;;9.70;22.70;;;;;;4964469;28;20517;-53
2023/02/21 03:44:24;;;;;;;9.13;8.70;;;9.80;22.50;;;;;;4954741;28;20218;-52
2023/02/21 03:46:49;;;;;;;9.37;8.83;;;10.00;21.60;;;;;;4962313;28;20490;-51
2023/02/21 03:49:15;;;;;;;9.93;9.33;;;10.00;21.30;;;;;;4963134;28;20178;-54
2023/02/21 03:51:41;;;;;;;10.50;9.93;;;9.90;22.20;;;;;;4962769;28;20207;-50
2023/02/21 03:54:06;;;;;;;10.83;10.20;;;9.90;22.70;;;;;;4963406;28;20178;-52
2023/02/21 03:56:32;;;;;;;9.63;9.10;;;9.90;22.40;;;;;;4961224;28;20220;-53
2023/02/21 03:58:57;;;;;;;10.80;9.80;;;10.00;21.50;;;;;;4963395;28;20174;-49
2023/02/21 04:01:23;;;;;;;11.93;10.70;;;10.10;21.40;;;;;;4961825;28;20174;-50
2023/02/21 04:03:49;;;;;;;10.37;9.80;;;10.20;21.30;;;;;;4968392;28;20644;-50
2023/02/21 04:06:15;;;;;;;10.70;10.20;;;10.10;21.10;;;;;;4959825;28;20175;-54
2023/02/21 04:08:41;;;;;;;9.70;9.20;;;9.90;22.40;;;;;;4967727;28;20178;-52
2023/02/21 04:11:07;;;;;;;11.70;10.90;;;10.00;21.70;;;;;;4959264;28;20430;-53
2023/02/21 04:13:32;;;;;;;10.40;9.70;;;9.80;22.60;;;;;;4958101;28;20766;-50
2023/02/21 04:15:58;;;;;;;11.93;11.23;;;9.50;23.60;;;;;;4965131;28;20512;-50
2023/02/21 04:18:23;;;;;;;10.83;10.33;;;9.60;23.70;;;;;;4963731;28;20178;-50
2023/02/21 04:20:49;;;;;;;10.73;10.00;;;9.60;23.70;;;;;;4961628;28;20545;-54
2023/02/21 04:23:19;;;;;;;10.20;9.70;;;9.70;23.30;;;;;;4947179;28;20224;-49
2023/02/21 04:25:45;;;;;;;10.57;9.97;;;9.80;22.90;;;;;;4955325;28;20183;-51
2023/02/21 04:28:11;;;;;;;11.67;10.87;;;9.90;22.70;;;;;;4963310;28;20513;-54
2023/02/21 04:30:36;;;;;;;10.90;10.30;;;10.00;21.80;;;;;;4967343;28;20205;-53
2023/02/21 04:33:03;;;;;;;10.90;10.20;;;10.00;21.60;;;;;;4964009;28;20591;-51
2023/02/21 04:35:29;;;;;;;10.13;9.53;;;10.10;21.60;;;;;;4961573;28;20269;-51
2023/02/21 04:37:54;;;;;;;9.80;9.30;;;10.20;21.50;;;;;;4959702;28;20533;-52
2023/02/21 04:40:20;;;;;;;11.47;10.87;;;10.20;21.50;;;;;;4959373;28;20509;-53
2023/02/21 04:42:46;;;;;;;11.20;10.40;;;10.20;21.40;;;;;;4971192;28;20241;-51
2023/02/21 04:45:11;;;;;;;12.37;11.67;;;10.10;21.60;;;;;;4963549;28;20229;-53
2023/02/21 04:47:37;;;;;;;12.50;11.50;;;9.80;23.10;;;;;;4970250;28;20583;-51
2023/02/21 04:50:04;;;;;;;11.90;11.20;;;9.80;23.30;;;;;;4964231;28;20178;-49
2023/02/21 04:52:29;;;;;;;12.30;11.47;;;9.80;23.10;;;;;;4969278;28;20204;-53
2023/02/21 04:54:55;;;;;;;12.40;11.50;;;9.70;23.70;;;;;;4967517;28;20896;-53
2023/02/21 04:57:21;;;;;;;12.73;11.97;;;9.80;23.30;;;;;;4967193;28;20217;-53
2023/02/21 04:59:46;;;;;;;12.87;11.83;;;9.70;23.60;;;;;;4983801;28;20235;-53
2023/02/21 05:02:12;;;;;;;11.90;11.10;;;9.70;23.40;;;;;;4967217;28;20498;-53
2023/02/21 05:04:38;;;;;;;12.90;12.00;;;9.60;23.60;;;;;;4964251;28;20260;-52
2023/02/21 05:07:04;;;;;;;11.90;11.20;;;9.60;23.70;;;;;;4967493;28;20702;-50
2023/02/21 05:09:30;;;;;;;13.70;12.50;;;9.80;23.70;;;;;;4966389;28;20179;-51
2023/02/21 05:11:55;;;;;;;13.40;12.27;;;9.90;23.10;;;;;;4967635;28;20247;-53
2023/02/21 05:14:21;;;;;;;13.30;12.20;;;10.10;22.00;;;;;;4965747;28;20524;-54
2023/02/21 05:16:46;;;;;;;13.13;12.43;;;10.20;21.80;;;;;;4981096;28;20171;-51
2023/02/21 05:19:12;;;;;;;12.70;11.83;;;10.30;21.60;;;;;;4964451;28;20178;-53
2023/02/21 05:21:38;;;;;;;12.67;11.77;;;10.30;21.50;;;;;;4971194;28;20285;-53
2023/02/21 05:24:05;;;;;;;11.97;11.27;;;10.40;21.20;;;;;;4957287;28;20237;-51
2023/02/21 05:26:35;;;;;;;12.33;11.50;;;9.90;22.90;;;;;;4970721;28;20272;-53
2023/02/21 05:29:01;;;;;;;12.37;11.57;;;9.50;23.60;;;;;;4963689;28;20505;-51
2023/02/21 05:31:27;;;;;;;12.77;11.73;;;9.30;24.30;;;;;;4969253;28;20418;-57
2023/02/21 05:33:53;;;;;;;12.57;11.87;;;9.40;24.70;;;;;;4967296;28;20429;-56
2023/02/21 05:36:23;;;;;;;12.20;11.20;;;9.60;23.70;;;;;;4967582;28;20774;-58
2023/02/21 05:38:51;;;;;;;12.93;11.87;;;9.80;23.80;;;;;;4965809;28;20205;-58
2023/02/21 05:41:17;;;;;;;12.30;11.40;;;9.90;23.70;;;;;;4970707;28;20878;-57
2023/02/21 05:43:45;;;;;;;12.50;11.67;;;9.90;23.40;;;;;;4983102;28;20488;-57
2023/02/21 05:46:37;;;;;;;12.53;11.53;;;10.00;22.50;;;;;;4967712;28;20449;-57
2023/02/21 05:49:03;;;;;;;10.97;10.27;;;10.10;22.50;;;;;;4972959;28;20421;-56
2023/02/21 05:51:40;;;;;;;12.03;10.80;;;10.20;22.10;;;;;;4964568;28;20424;-57
2023/02/21 05:54:10;;;;;;;11.97;11.27;;;10.20;22.10;;;;;;4957476;28;20516;-57
2023/02/21 05:56:38;;;;;;;10.13;9.33;;;10.20;21.90;;;;;;4963696;28;20422;-57
2023/02/21 05:59:04;;;;;;;11.60;10.57;;;10.20;22.00;;;;;;4968527;28;20708;-56
2023/02/21 06:01:29;;;;;;;12.47;11.60;;;10.20;21.80;;;;;;4965634;28;20418;-57
2023/02/21 06:03:55;;;;;;;13.63;12.70;;;10.10;21.90;;;;;;4972040;28;20418;-57
2023/02/21 06:06:21;;;;;;;14.23;13.50;;;10.10;22.20;;;;;;4964806;28;20547;-55
2023/02/21 06:08:48;;;;;;;13.27;12.60;;;10.10;22.30;;;;;;4982783;28;20179;-57
2023/02/21 06:11:20;;;;;;;13.33;12.33;;;10.00;22.20;;;;;;4964578;28;20189;-57
2023/02/21 06:13:48;;;;;;;13.23;12.40;;;9.90;23.50;;;;;;4970797;28;20418;-56
2023/02/21 06:16:14;;;;;;;13.03;12.33;;;9.50;24.20;;;;;;4966194;28;20413;-57
2023/02/21 06:18:40;;;;;;;14.40;13.40;;;9.60;24.10;;;;;;4965755;28;20429;-56
2023/02/21 06:21:05;;;;;;;12.20;11.50;;;9.70;23.70;;;;;;4968460;28;20177;-56
2023/02/21 06:23:31;;;;;;;13.60;12.90;;;9.70;23.70;;;;;;4960096;28;20542;-56
2023/02/21 06:25:57;;;;;;;13.97;12.77;;;9.70;23.70;;;;;;4966895;28;20181;-57
2023/02/21 06:28:27;;;;;;;15.70;14.37;;;9.80;23.80;;;;;;4967805;28;20178;-57
2023/02/21 06:30:53;;;;;;;13.97;13.27;;;9.70;24.00;;;;;;4957171;28;20178;-57
2023/02/21 06:33:18;;;;;;;14.00;13.00;;;9.80;23.80;;;;;;4960606;28;20470;-56
2023/02/21 06:35:44;;;;;;;14.10;13.40;;;9.80;23.80;;;;;;4967341;28;20197;-53
2023/02/21 06:38:10;;;;;;;13.53;12.73;;;9.80;23.80;;;;;;4967434;28;20178;-57
2023/02/21 06:40:36;;;;;;;13.83;13.13;;;9.90;23.90;;;;;;4965834;28;20217;-57
2023/02/21 06:43:01;;;;;;;13.73;13.03;;;9.90;23.90;;;;;;4987867;28;21119;-55
2023/02/21 06:45:27;;;;;;;13.93;13.03;;;9.80;23.80;;;;;;4957829;28;20652;-57
2023/02/21 06:47:52;;;;;;;13.87;12.97;;;9.80;23.80;;;;;;4970544;28;20545;-57
2023/02/21 06:50:18;;;;;;;13.80;13.00;;;9.90;23.90;;;;;;4964755;28;20182;-57
2023/02/21 06:52:44;;;;;;;14.60;13.60;;;9.70;23.70;;;;;;4964822;28;20218;-56
2023/02/21 06:55:09;;;;;;;13.27;12.43;;;9.50;23.90;;;;;;4963050;28;20217;-56
2023/02/21 06:57:35;;;;;;;15.10;13.83;;;9.30;24.50;;;;;;4962087;28;20187;-57
2023/02/21 07:00:01;;;;;;;14.13;13.23;;;9.20;24.30;;;;;;4959404;28;20270;-51
2023/02/21 07:02:27;;;;;;;12.57;11.57;;;9.00;24.70;;;;;;4954207;28;20182;-54
2023/02/21 07:04:52;;;;;;;13.60;12.50;;;8.90;25.20;;;;;;4954292;28;20429;-51
2023/02/21 07:07:18;;;;;;;17.57;11.77;;;8.90;25.30;;;;;;4966230;28;20212;-56
2023/02/21 07:09:44;;;;;;;12.60;11.30;;;8.80;25.50;;;;;;4964425;28;20197;-57
2023/02/21 07:12:09;;;;;;;13.23;12.23;;;8.70;25.50;;;;;;4965466;28;20210;-57
2023/02/21 07:14:35;;;;;;;12.70;11.73;;;8.60;25.80;;;;;;4957673;28;20193;-57
2023/02/21 07:17:01;;;;;;;12.67;11.53;;;8.70;26.20;;;;;;4965871;28;20245;-56
2023/02/21 07:19:26;;;;;;;12.30;11.10;;;8.80;25.70;;;;;;4965670;28;20197;-58
2023/02/21 07:21:52;;;;;;;13.57;11.47;;;9.00;25.00;;;;;;4967323;28;20182;-58
2023/02/21 07:24:18;;;;;;;12.07;11.17;;;9.00;24.90;;;;;;4980108;28;20183;-58
2023/02/21 07:26:43;;;;;;;12.13;11.07;;;9.00;25.40;;;;;;4966112;28;20545;-58
2023/02/21 07:29:09;;;;;;;13.70;12.60;;;9.10;25.00;;;;;;4971849;28;20181;-57
2023/02/21 07:31:35;;;;;;;11.70;10.90;;;9.30;24.60;;;;;;4956511;28;20202;-58
2023/02/21 07:34:01;;;;;;;13.13;12.27;;;9.40;24.20;;;;;;4967591;28;20255;-57
2023/02/21 07:36:27;;;;;;;12.70;11.63;;;9.50;23.90;;;;;;4964138;28;20501;-56
2023/02/21 07:38:53;;;;;;;12.43;11.57;;;9.60;23.70;;;;;;4967234;28;20209;-58
2023/02/21 07:41:18;;;;;;;10.97;10.27;;;9.70;23.70;;;;;;4966960;28;20194;-56
2023/02/21 07:43:44;;;;;;;11.87;11.17;;;9.70;23.70;;;;;;4966006;28;20198;-58
2023/02/21 07:46:16;;;;;;;13.07;11.73;;;9.80;23.70;;;;;;4966889;28;20178;-57
2023/02/21 07:48:42;;;;;;;12.40;11.50;;;9.80;23.30;;;;;;4964534;28;20226;-57
2023/02/21 07:51:08;;;;;;;12.80;11.80;;;9.90;23.90;;;;;;4965785;28;20425;-58
2023/02/21 07:53:34;;;;;;;11.03;10.43;;;9.90;23.50;;;;;;4964364;28;20206;-59
2023/02/21 07:56:00;;;;;;;13.00;12.10;;;10.00;23.00;;;;;;4968829;28;20493;-57
2023/02/21 07:58:25;;;;;;;11.83;11.23;;;10.00;22.60;;;;;;4963261;28;20230;-56
2023/02/21 08:00:51;;;;;;;13.20;12.27;;;10.00;22.40;;;;;;4958203;28;20214;-59
2023/02/21 08:03:17;;;;;;;12.40;11.60;;;10.10;22.20;;;;;;4969438;28;20285;-58
2023/02/21 08:05:44;;;;;;;12.83;11.40;;;10.10;22.60;;;;;;4957402;28;20480;-57
2023/02/21 08:08:11;;;;;;;13.43;12.50;;;10.10;22.40;;;;;;4983247;28;20922;-57
2023/02/21 08:10:36;;;;;;;14.03;12.43;;;10.10;22.40;;;;;;4965207;28;20925;-50
2023/02/21 08:13:02;;;;;;;14.20;13.00;;;10.20;22.20;;;;;;4965061;28;20465;-49
2023/02/21 08:15:28;;;;;;;14.27;12.80;;;9.90;23.10;;;;;;4982692;28;20188;-48
2023/02/21 08:17:54;;;;;;;12.83;12.03;;;9.90;23.90;;;;;;4962297;28;20421;-49
2023/02/21 08:20:19;;;;;;;13.57;12.50;;;9.90;23.90;;;;;;4961440;28;20616;-49
2023/02/21 08:22:45;;;;;;;14.53;13.30;;;10.00;23.20;;;;;;4962202;28;20191;-47
2023/02/21 08:25:12;;;;;;;13.20;12.00;;;10.10;23.20;;;;;;4966941;28;20183;-50
2023/02/21 08:27:39;;;;;;;17.33;13.47;;;10.20;23.10;;;;;;4968756;28;20185;-49
2023/02/21 08:30:07;;;;;;;14.80;13.40;;;10.20;22.80;;;;;;4966710;28;20422;-59
2023/02/21 08:32:34;;;;;;;14.63;13.63;;;10.30;22.60;;;;;;4967467;28;20466;-59
2023/02/21 08:35:02;;;;;;;15.13;13.70;;;10.30;22.50;;;;;;4972091;28;20913;-59
2023/02/21 08:37:31;;;;;;;14.07;12.77;;;10.40;22.50;;;;;;4967106;28;20433;-59
2023/02/21 08:39:58;;;;;;;14.87;13.67;;;10.50;22.20;;;;;;4970971;28;20414;-57
2023/02/21 08:42:24;;;;;;;14.20;12.90;;;10.50;21.90;;;;;;4973566;28;20741;-57
2023/02/21 08:44:50;;;;;;;14.73;13.70;;;10.60;22.20;;;;;;4966640;28;20477;-56
2023/02/21 08:47:17;;;;;;;15.47;14.07;;;10.60;21.80;;;;;;4971203;28;20869;-57
2023/02/21 08:49:47;;;;;;;14.00;12.73;;;10.60;21.80;;;;;;4967548;28;20216;-54
2023/02/21 08:52:15;;;;;;;15.30;13.17;;;10.70;21.50;;;;;;4969624;28;20822;-57
2023/02/21 08:54:41;;;;;;;14.97;13.73;;;10.70;21.10;;;;;;4968352;28;20430;-56
2023/02/21 08:57:07;;;;;;;15.30;14.20;;;10.70;21.80;;;;;;4970084;28;20449;-55
2023/02/21 08:59:33;;;;;;;14.20;13.13;;;10.80;21.80;;;;;;4967156;28;20938;-56
2023/02/21 09:02:00;;;;;;;15.03;13.70;;;10.70;21.60;;;;;;4986964;28;20214;-57
2023/02/21 09:04:26;;;;;;;15.33;14.03;;;10.80;21.50;;;;;;4969260;28;20422;-57
2023/02/21 09:06:53;;;;;;;14.27;13.27;;;10.90;21.20;;;;;;4955659;28;20429;-56
2023/02/21 09:09:19;;;;;;;14.43;13.30;;;10.80;21.10;;;;;;4968692;28;20429;-57
2023/02/21 09:11:47;;;;;;;13.03;12.00;;;10.90;21.20;;;;;;4968380;28;20472;-57
2023/02/21 09:14:13;;;;;;;13.67;12.53;;;11.00;21.00;;;;;;4968432;28;20487;-55
2023/02/21 09:16:40;;;;;;;11.70;10.80;;;11.00;20.70;;;;;;4973051;28;20787;-57
2023/02/21 09:19:06;;;;;;;10.87;10.17;;;11.10;20.80;;;;;;4965863;28;20426;-57
2023/02/21 09:21:33;;;;;;;11.80;10.63;;;11.00;20.80;;;;;;4971896;28;20433;-57
2023/02/21 09:23:58;;;;;;;11.70;10.80;;;11.10;21.20;;;;;;4970290;28;20436;-57
2023/02/21 09:26:25;;;;;;;11.67;10.87;;;11.10;20.80;;;;;;4969413;28;20425;-58
2023/02/21 09:28:51;;;;;;;14.40;13.20;;;11.20;20.70;;;;;;4966569;28;20178;-58
2023/02/21 09:31:18;;;;;;;12.80;12.00;;;11.20;20.70;;;;;;4968797;28;20428;-57
2023/02/21 09:33:44;;;;;;;11.43;10.57;;;11.30;20.70;;;;;;4967718;28;20477;-57
2023/02/21 09:36:10;;;;;;;11.80;10.77;;;11.50;20.30;;;;;;4969247;28;20422;-56
2023/02/21 09:38:36;;;;;;;12.90;12.00;;;11.80;20.00;;;;;;4966429;28;20830;-56
2023/02/21 09:41:07;;;;;;;11.07;10.40;;;12.00;19.60;;;;;;4969321;28;20475;-54
2023/02/21 09:43:33;;;;;;;10.43;9.93;;;12.10;18.80;;;;;;4967782;28;20179;-56
2023/02/21 09:46:03;;;;;;;11.60;10.70;;;12.00;19.90;;;;;;4986036;28;20520;-55
2023/02/21 09:48:29;;;;;;;11.20;10.50;;;12.10;19.60;;;;;;4966576;28;20725;-56
2023/02/21 09:51:03;;;;;;;11.43;10.73;;;11.90;19.10;;;;;;4973167;28;20513;-57
2023/02/21 09:53:32;;;;;;;10.43;9.80;;;11.90;19.30;;;;;;4964474;28;20568;-59
2023/02/21 09:56:06;;;;;;;10.50;9.90;;;11.90;19.40;;;;;;4971126;28;20449;-58
2023/02/21 09:58:33;;;;;;;42.27;22.87;;;11.80;19.70;;;;;;4966043;28;20438;-57
2023/02/21 10:01:05;;;;;;;17.77;16.07;;;11.90;20.20;;;;;;4970288;28;20418;-55
2023/02/21 10:03:44;;;;;;;21.40;14.30;;;11.90;19.90;;;;;;4965883;28;20512;-57
2023/02/21 10:06:22;;;;;;;9.73;9.33;;;12.00;20.00;;;;;;4970836;28;20426;-56
2023/02/21 10:09:26;;;;;;;10.50;9.80;;;12.10;19.60;;;;;;4971997;28;20509;-56
2023/02/21 10:12:11;;;;;;;12.10;11.23;;;12.00;19.60;;;;;;4924939;28;20464;-57
2023/02/21 10:14:47;;;;;;;8.93;8.50;;;12.10;19.90;;;;;;4967343;28;20415;-56
2023/02/21 10:17:18;;;;;;;10.80;9.90;;;12.10;19.60;;;;;;4969696;28;20424;-56
2023/02/21 10:19:51;;;;;;;10.40;9.87;;;12.10;20.00;;;;;;4967271;28;20426;-57
2023/02/21 10:22:26;;;;;;;10.00;9.40;;;12.20;20.00;;;;;;4967729;28;20422;-56
2023/02/21 10:24:52;;;;;;;10.13;9.37;;;12.30;19.70;;;;;;4948605;28;20765;-57
2023/02/21 10:27:21;;;;;;;10.03;9.33;;;12.30;20.00;;;;;;4957292;28;20430;-58
2023/02/21 10:30:10;;;;;;;10.83;10.07;;;12.40;20.60;;;;;;4957057;28;20437;-58
2023/02/21 10:32:36;;;;;;;10.20;9.70;;;12.40;20.80;;;;;;4955246;28;20473;-56
2023/02/21 10:35:02;;;;;;;10.80;10.10;;;12.40;19.90;;;;;;4956868;28;20821;-58
2023/02/21 10:37:56;;;;;;;11.37;10.40;;;12.50;20.10;;;;;;4957417;28;20426;-58
2023/02/21 10:40:34;;;;;;;11.10;10.20;;;12.60;20.40;;;;;;4954866;28;20834;-57
2023/02/21 10:43:12;;;;;;;8.90;8.40;;;12.70;18.90;;;;;;4957036;28;20422;-57
2023/02/21 10:45:48;;;;;;;9.73;9.20;;;12.80;18.40;;;;;;4959294;28;20458;-56
2023/02/21 10:48:15;;;;;;;9.63;8.43;;;12.80;18.60;;;;;;4986453;28;20422;-57
2023/02/21 10:51:02;;;;;;;9.07;8.47;;;12.90;18.80;;;;;;4966244;28;20434;-56
2023/02/21 10:53:39;;;;;;;9.90;9.27;;;12.90;18.60;;;;;;4965868;28;20594;-57
2023/02/21 10:56:14;;;;;;;10.20;9.70;;;13.00;18.80;;;;;;4967373;28;20436;-56
2023/02/21 10:59:00;;;;;;;10.47;9.63;;;13.20;18.70;;;;;;4966043;28;20831;-55
2023/02/21 11:01:28;;;;;;;9.83;9.33;;;13.20;17.90;;;;;;4966401;28;20586;-55
2023/02/21 11:04:02;;;;;;;10.90;10.30;;;13.40;18.20;;;;;;4967631;28;20923;-54
2023/02/21 11:06:30;;;;;;;15.47;12.00;;;13.40;17.90;;;;;;4965118;28;20414;-56
2023/02/21 11:08:56;;;;;;;10.37;9.73;;;13.50;17.30;;;;;;4967624;28;20937;-54
2023/02/21 11:11:41;;;;;;;11.33;10.23;;;13.50;17.80;;;;;;4964262;28;20931;-57
2023/02/21 11:14:27;;;;;;;10.50;9.70;;;13.50;17.50;;;;;;4959041;28;20496;-57
2023/02/21 11:17:16;;;;;;;10.40;9.70;;;13.60;17.90;;;;;;4968917;28;20417;-56
2023/02/21 11:19:57;;;;;;;10.07;9.40;;;13.70;17.80;;;;;;4964806;28;20414;-57
2023/02/21 11:22:42;;;;;;;13.10;10.67;;;13.70;17.90;;;;;;4983984;28;20422;-56
2023/02/21 11:25:10;;;;;;;9.77;9.17;;;13.80;17.80;;;;;;4957250;28;20945;-56
2023/02/21 11:27:37;;;;;;;11.33;10.40;;;13.90;17.60;;;;;;4965216;28;20794;-57
2023/02/21 11:30:18;;;;;;;12.03;10.87;;;13.90;17.60;;;;;;4969882;28;20414;-56
2023/02/21 11:32:50;;;;;;;11.10;10.40;;;13.90;17.60;;;;;;4963475;28;20469;-55
2023/02/21 11:35:19;;;;;;;9.97;9.47;;;14.00;17.60;;;;;;4963651;28;20421;-56
2023/02/21 11:37:47;;;;;;;11.97;11.27;;;14.10;17.70;;;;;;4966204;28;20837;-57
2023/02/21 11:40:43;;;;;;;11.63;10.70;;;14.00;17.60;;;;;;4960416;28;20465;-61
2023/02/21 11:43:29;;;;;;;10.30;9.80;;;14.10;17.70;;;;;;4963856;28;20434;-58
2023/02/21 11:45:58;;;;;;;11.57;10.77;;;14.10;17.70;;;;;;4953764;28;20516;-57
2023/02/21 11:48:30;;;;;;;11.57;10.87;;;14.10;17.70;;;;;;4969200;28;20425;-57
2023/02/21 11:50:58;;;;;;;10.80;10.20;;;14.20;17.80;;;;;;4959442;28;20464;-55
2023/02/21 11:53:33;;;;;;;9.10;8.60;;;14.20;17.80;;;;;;4963887;28;20843;-57
2023/02/21 11:56:19;;;;;;;9.83;9.33;;;14.20;17.80;;;;;;4949050;28;20424;-57
2023/02/21 11:59:03;;;;;;;16.60;9.93;;;14.20;17.70;;;;;;4982206;28;20418;-57
2023/02/21 12:02:05;;;;;;;9.73;9.03;;;14.30;17.80;;;;;;4983538;28;20405;-57
2023/02/21 12:04:40;;;;;;;9.50;9.10;;;14.40;17.40;;;;;;4927237;28;20427;-57
2023/02/21 12:07:05;;;;;;;10.20;9.50;;;14.40;17.20;;;;;;4967601;28;20413;-58
2023/02/21 12:09:49;;;;;;;12.37;11.57;;;14.40;17.10;;;;;;4965788;28;20413;-58
2023/02/21 12:12:31;;;;;;;22.83;20.70;;;14.50;17.30;;;;;;4978549;28;20638;-55
2023/02/21 12:15:03;;;;;;;8.93;8.53;;;14.50;17.20;;;;;;4965306;28;20535;-57
2023/02/21 12:17:39;;;;;;;9.50;9.10;;;14.50;17.10;;;;;;4966026;28;20714;-55
2023/02/21 12:20:26;;;;;;;9.50;9.00;;;14.60;16.80;;;;;;4961028;28;20425;-57
2023/02/21 12:23:14;;;;;;;9.27;8.63;;;14.60;16.90;;;;;;4959719;28;20430;-57
2023/02/21 12:25:52;;;;;;;9.10;8.57;;;14.60;16.40;;;;;;4968503;28;20937;-57
2023/02/21 12:28:36;;;;;;;8.93;8.53;;;14.70;16.20;;;;;;4965279;28;20431;-56
2023/02/21 12:31:11;;;;;;;8.97;8.47;;;14.70;16.20;;;;;;4982740;28;20457;-56
2023/02/21 12:33:43;;;;;;;8.37;7.77;;;14.70;16.10;;;;;;4964864;28;20500;-56
2023/02/21 12:36:19;;;;;;;9.53;9.13;;;14.70;15.90;;;;;;4966328;28;20425;-56
2023/02/21 12:39:06;;;;;;;8.30;7.90;;;14.80;15.70;;;;;;4963907;28;20849;-55
2023/02/21 12:41:54;;;;;;;8.90;8.20;;;14.80;15.60;;;;;;4968271;28;20996;-57
2023/02/21 12:44:55;;;;;;;8.47;8.03;;;14.90;15.50;;;;;;4975274;28;21010;-56
2023/02/21 12:47:35;;;;;;;8.87;8.47;;;14.90;15.40;;;;;;4896000;28;20454;-55
2023/02/21 12:50:00;;;;;;;9.90;9.13;;;14.90;15.50;;;;;;4960722;28;20750;-56
2023/02/21 12:52:47;;;;;;;9.20;8.50;;;14.90;15.70;;;;;;4968397;28;20626;-56
2023/02/21 12:55:25;;;;;;;8.20;7.80;;;14.90;15.40;;;;;;4963585;28;20173;-57
2023/02/21 12:58:13;;;;;;;9.07;8.50;;;14.90;15.50;;;;;;4962939;28;20410;-57
2023/02/21 13:00:48;;;;;;;8.90;8.50;;;14.90;15.50;;;;;;4961882;28;20417;-57
2023/02/21 13:03:39;;;;;;;8.30;8.00;;;15.00;15.30;;;;;;4960599;28;20483;-58
2023/02/21 13:06:20;;;;;;;8.37;7.73;;;15.10;15.30;;;;;;4963010;28;20426;-57
2023/02/21 13:08:59;;;;;;;9.03;8.70;;;15.10;15.10;;;;;;4973408;28;20429;-56
2023/02/21 13:11:40;;;;;;;9.13;8.73;;;15.10;14.90;;;;;;4962403;28;20485;-57
2023/02/21 13:14:18;;;;;;;9.23;8.70;;;15.20;14.90;;;;;;4962298;28;20426;-57
2023/02/21 13:16:44;;;;;;;7.70;7.30;;;15.30;14.70;;;;;;4968611;28;20508;-55
2023/02/21 13:19:11;;;;;;;8.10;7.80;;;15.30;14.50;;;;;;4968742;28;20506;-58
2023/02/21 13:21:51;;;;;;;9.40;8.00;;;15.30;14.40;;;;;;4972418;28;20449;-58
2023/02/21 13:24:44;;;;;;;8.50;8.10;;;15.30;14.40;;;;;;4959664;28;20426;-55
2023/02/21 13:27:47;;;;;;;8.27;7.77;;;15.30;14.20;;;;;;4959385;28;20776;-56
2023/02/21 13:30:20;;;;;;;8.07;7.70;;;15.40;14.60;;;;;;4981937;28;20409;-59
2023/02/21 13:32:56;;;;;;;8.33;8.03;;;15.40;14.50;;;;;;4959178;28;21072;-56
2023/02/21 13:35:30;;;;;;;8.80;8.30;;;15.40;14.60;;;;;;4958708;28;20406;-57
2023/02/21 13:37:57;;;;;;;8.20;7.80;;;15.40;14.30;;;;;;4958604;28;20437;-53
2023/02/21 13:40:49;;;;;;;8.20;7.90;;;15.40;14.00;;;;;;4958685;28;20485;-52
2023/02/21 13:43:25;;;;;;;8.10;7.60;;;15.50;14.00;;;;;;4958595;28;20474;-50
2023/02/21 13:45:51;;;;;;;8.27;7.93;;;15.50;14.30;;;;;;4962352;28;20436;-58
2023/02/21 13:48:27;;;;;;;8.83;8.43;;;15.50;14.20;;;;;;4966172;28;20946;-56
2023/02/21 13:50:56;;;;;;;8.17;7.87;;;15.60;14.10;;;;;;4965952;28;20504;-57
2023/02/21 13:53:32;;;;;;;8.00;7.70;;;15.60;13.90;;;;;;4965681;28;20466;-56
2023/02/21 13:55:58;;;;;;;7.27;7.07;;;15.60;13.80;;;;;;4961133;28;20418;-55
2023/02/21 13:58:37;;;;;;;8.97;8.17;;;15.70;13.90;;;;;;4991695;28;20420;-57
2023/02/21 14:01:14;;;;;;;8.83;8.23;;;15.70;13.70;;;;;;4981240;28;20658;-58
2023/02/21 14:03:40;;;;;;;7.93;7.63;;;15.70;14.00;;;;;;4965891;28;20431;-54
2023/02/21 14:06:09;;;;;;;9.43;9.03;;;15.80;13.60;;;;;;4958051;28;20513;-57
2023/02/21 14:08:48;;;;;;;9.03;8.57;;;15.80;13.60;;;;;;4970618;28;20181;-57
2023/02/21 14:11:20;;;;;;;9.33;8.93;;;15.80;13.40;;;;;;4966021;28;20417;-57
2023/02/21 14:14:03;;;;;;;8.70;8.30;;;15.80;13.50;;;;;;4965412;28;20465;-54
2023/02/21 14:16:44;;;;;;;8.87;8.37;;;15.80;13.40;;;;;;4971253;28;20779;-57
2023/02/21 14:19:23;;;;;;;8.30;8.00;;;15.90;13.30;;;;;;4971211;28;20472;-56
2023/02/21 14:21:55;;;;;;;8.57;8.07;;;15.90;13.40;;;;;;4965406;28;20421;-56
2023/02/21 14:24:26;;;;;;;7.90;7.60;;;15.90;14.00;;;;;;4971112;28;20500;-55
2023/02/21 14:26:55;;;;;;;8.50;8.10;;;15.80;13.90;;;;;;4979745;28;20418;-56
2023/02/21 14:29:32;;;;;;;8.30;8.00;;;15.80;14.20;;;;;;4970002;28;20448;-56
2023/02/21 14:32:01;;;;;;;7.97;7.67;;;15.70;14.50;;;;;;4961546;28;20464;-55
2023/02/21 14:34:48;;;;;;;8.20;7.80;;;15.70;14.80;;;;;;4971331;28;20420;-55
2023/02/21 14:37:29;;;;;;;8.37;7.97;;;15.60;14.50;;;;;;4964950;28;20425;-57
2023/02/21 14:40:07;;;;;;;9.00;8.30;;;15.70;13.80;;;;;;4960951;28;20414;-56
2023/02/21 14:43:12;;;;;;;7.57;6.97;;;15.70;13.80;;;;;;4971904;28;20863;-55
2023/02/21 14:45:56;;;;;;;8.33;8.03;;;15.80;13.40;;;;;;4932356;28;20442;-57
2023/02/21 14:48:36;;;;;;;7.43;7.23;;;15.90;13.70;;;;;;4960264;28;20432;-57
2023/02/21 14:51:23;;;;;;;7.97;7.63;;;15.90;13.50;;;;;;4963649;28;20430;-55
2023/02/21 14:54:26;;;;;;;8.17;7.77;;;15.90;13.50;;;;;;4971913;28;20973;-55
2023/02/21 14:56:59;;;;;;;8.87;8.43;;;15.90;14.20;;;;;;4953335;28;20492;-54
2023/02/21 14:59:53;;;;;;;8.33;7.87;;;15.90;14.40;;;;;;4965593;28;20485;-57
2023/02/21 15:02:33;;;;;;;8.73;7.93;;;16.00;13.90;;;;;;4960610;28;20839;-56
2023/02/21 15:05:02;;;;;;;7.60;7.30;;;16.00;14.00;;;;;;4961152;28;20417;-57
2023/02/21 15:07:46;;;;;;;6.90;6.63;;;16.00;14.70;;;;;;4960697;28;20418;-53
2023/02/21 15:10:30;;;;;;;6.90;6.60;;;16.00;14.30;;;;;;4983858;28;21000;-48
2023/02/21 15:13:02;;;;;;;6.90;6.60;;;16.00;13.60;;;;;;4954717;28;20981;-53
2023/02/21 15:15:27;;;;;;;7.60;7.30;;;16.10;14.00;;;;;;4966422;28;20410;-50
2023/02/21 15:18:06;;;;;;;7.70;7.40;;;16.10;13.40;;;;;;4967667;28;20487;-54
2023/02/21 15:20:34;;;;;;;8.13;7.83;;;16.10;13.40;;;;;;4965519;28;20182;-51